Latest Weather Observations for Rottnest Island

IDW60801

Issued at 1:33 pm WST Friday 16 November 2018 (issued every 10 minutes, with the page automatically refreshed every 10 minutes)

About weather observations | Map of weather stations | Latest weather observations for WA | Other Formats
Station Details ID: 009193 Name: ROTTNEST ISLAND Lat: -32.01 Lon: 115.50 Height: 43.1 m
Data from the previous 72 hours. | See also: Recent months at Rottnest Island
Date/Time
WST
Temp
°C
App
Temp
°C
Dew
Point
°C
Rel
Hum
%
Delta-T
°C
Wind Press
QNH
hPa
Press
MSL
hPa
Rain since
9am
mm
Dir  Spd
km/h
Gust
km/h
Spd
kts
Gust
kts
16/01:30pm 22.4 19.3 15.5 65 4.1 SSW 26 32 14 17 1012.4 1012.2 0.0
16/01:00pm 21.8 18.2 16.3 71 3.3 SSW 30 35 16 19 1012.9 1012.7 0.0
16/12:30pm 22.3 18.9 15.9 67 3.9 SSW 28 35 15 19 1013.3 1013.1 0.0
16/12:00pm 21.8 18.5 16.1 70 3.4 SSW 28 33 15 18 1013.7 1013.6 0.0
16/11:30am 20.9 18.5 15.4 71 3.3 SSW 22 26 12 14 1014.1 1014.0 0.0
16/11:00am 22.6 20.1 16.2 67 3.9 SSW 24 30 13 16 1014.7 1014.6 0.0
16/10:30am 21.5 18.0 14.6 65 4.1 S 26 32 14 17 1014.6 1014.5 0.0
16/10:00am 22.0 19.3 15.6 67 3.8 S 24 30 13 16 1014.9 1014.8 0.0
16/09:30am 21.0 18.1 15.1 69 3.5 S 24 28 13 15 1014.9 1014.8 0.0
16/09:00am 20.4 16.8 14.1 67 3.7 SSE 26 30 14 16 1015.2 1015.1 0.0
16/08:30am 20.5 17.9 13.7 65 3.9 SSE 20 28 11 15 1015.6 1015.5 0.0
16/08:00am 20.0 16.4 13.2 65 3.9 SE 24 28 13 15 1015.9 1015.8 0.0
16/07:30am 20.0 17.1 13.0 64 4.0 SSE 20 26 11 14 1016.0 1015.9 0.0
16/07:00am 19.7 15.4 12.2 62 4.2 SE 26 33 14 18 1016.1 1016.0 0.0
16/06:30am 19.3 15.9 11.3 60 4.4 SE 20 30 11 16 1016.3 1016.2 0.0
16/06:00am 18.8 14.3 11.4 62 4.1 SE 26 35 14 19 1015.6 1015.5 0.0
16/05:30am 18.4 14.7 11.5 64 3.8 SE 22 32 12 17 1015.4 1015.3 0.0
16/05:00am 18.4 14.9 11.0 62 4.0 ESE 20 32 11 17 1015.0 1014.9 0.0
16/04:30am 18.7 15.3 11.3 62 4.0 SE 20 26 11 14 1015.3 1015.2 0.0
16/04:00am 18.9 15.1 11.0 60 4.3 SE 22 32 12 17 1015.5 1015.4 0.0
16/03:30am 19.2 14.7 10.2 56 4.8 SE 24 33 13 18 1015.2 1015.1 0.0
16/03:00am 19.4 15.2 9.9 54 5.1 SE 22 32 12 17 1015.3 1015.2 0.0
16/02:30am 19.8 16.1 10.2 54 5.2 SE 20 30 11 16 1015.3 1015.2 0.0
16/02:00am 20.3 16.1 9.8 51 5.6 SE 22 33 12 18 1015.6 1015.5 0.0
16/01:30am 20.9 16.6 9.5 48 6.1 ESE 22 33 12 18 1015.6 1015.5 0.0
16/01:00am 21.3 17.5 11.1 52 5.6 ESE 22 30 12 16 1015.8 1015.7 0.0
16/12:30am 22.1 16.2 11.2 50 6.1 ESE 33 44 18 24 1015.7 1015.6 0.0
16/12:00am 22.7 18.2 12.6 53 5.8 ESE 28 44 15 24 1015.5 1015.4 0.0
 
Date/Time
WST
Temp
°C
App
Temp
°C
Dew
Point
°C
Rel
Hum
%
Delta-T
°C
Wind Press
QNH
hPa
Press
MSL
hPa
Rain since
9am
mm
Dir  Spd
km/h
Gust
km/h
Spd
kts
Gust
kts
15/11:30pm 22.8 19.4 13.8 57 5.2 SE 24 39 13 21 1015.3 1015.2 0.0
15/11:00pm 21.3 18.0 14.9 67 3.8 SSE 26 32 14 17 1015.0 1014.9 0.0
15/10:30pm 20.4 17.1 16.0 76 2.6 SSE 28 32 15 17 1014.8 1014.7 0.0
15/10:00pm 19.9 16.9 16.9 83 1.8 S 28 39 15 21 1015.0 1014.9 0.0
15/09:30pm 19.8 16.0 16.8 83 1.8 S 32 39 17 21 1014.8 1014.7 0.0
15/09:00pm 19.7 15.3 16.7 83 1.8 S 35 41 19 22 1014.8 1014.7 0.0
15/08:30pm 20.0 15.1 16.4 80 2.2 S 37 43 20 23 1014.7 1014.6 0.0
15/08:00pm 20.1 15.1 16.1 78 2.4 S 37 46 20 25 1014.3 1014.2 0.0
15/07:30pm 20.1 14.6 15.7 76 2.6 S 39 48 21 26 1014.2 1014.1 0.0
15/07:00pm 20.1 14.9 15.5 75 2.7 S 37 46 20 25 1014.1 1014.0 0.0
15/06:30pm 20.1 14.8 15.3 74 2.8 S 37 44 20 24 1014.3 1014.2 0.0
15/06:00pm 20.5 14.9 15.5 73 3.0 S 39 46 21 25 1014.1 1014.0 0.0
15/05:30pm 20.9 15.8 15.7 72 3.1 SSW 37 48 20 26 1014.1 1014.0 0.0
15/05:00pm 20.7 14.7 15.5 72 3.1 SSW 41 46 22 25 1014.0 1013.9 0.0
15/04:30pm 21.3 15.9 16.0 72 3.2 SSW 39 48 21 26 1014.5 1014.4 0.0
15/04:00pm 21.0 15.6 16.0 73 3.0 SSW 39 44 21 24 1014.5 1014.4 0.0
15/03:30pm 21.3 16.1 15.6 70 3.4 SSW 37 46 20 25 1014.6 1014.5 0.0
15/03:00pm 21.5 15.9 15.6 69 3.5 SSW 39 48 21 26 1014.7 1014.6 0.0
15/02:30pm 21.8 15.8 15.4 67 3.8 SSW 41 48 22 26 1015.1 1015.0 0.0
15/02:00pm 21.9 16.6 15.3 66 3.9 SSW 37 44 20 24 1015.3 1015.2 0.0
15/01:30pm 21.3 16.0 15.2 68 3.6 SSW 37 44 20 24 1015.6 1015.5 0.0
15/01:00pm 20.8 14.8 15.4 71 3.2 SSW 41 48 22 26 1015.9 1015.8 0.0
15/12:30pm 21.4 16.2 14.6 65 4.0 SSW 35 43 19 23 1016.2 1016.1 0.0
15/12:00pm 21.7 16.9 14.6 64 4.2 S 33 39 18 21 1016.6 1016.5 0.0
15/11:30am 21.8 17.3 14.9 65 4.1 S 32 39 17 21 1016.8 1016.7 0.0
15/11:00am 21.9 17.1 14.5 63 4.3 S 33 41 18 22 1017.0 1016.9 0.0
15/10:30am 21.2 16.9 15.3 69 3.5 S 32 39 17 21 1017.2 1017.1 0.0
15/10:00am 20.9 16.5 15.7 72 3.1 S 33 39 18 21 1017.3 1017.2 0.0
15/09:30am 20.2 16.4 14.6 70 3.3 S 28 33 15 18 1017.3 1017.2 0.0
15/09:00am 20.5 16.5 15.3 72 3.1 S 30 35 16 19 1017.2 1017.1 0.0
15/08:30am 20.1 16.4 14.9 72 3.1 S 28 35 15 19 1017.1 1017.0 0.0
15/08:00am 20.0 17.7 15.6 76 2.6 S 22 28 12 15 1017.1 1017.0 0.0
15/07:30am 19.9 18.2 16.2 79 2.2 SSE 20 24 11 13 1016.7 1016.6 0.0
15/07:00am 19.3 17.4 15.8 80 2.1 SSE 20 24 11 13 1016.4 1016.3 0.0
15/06:30am 19.1 17.6 16.3 84 1.7 SSE 19 20 10 11 1016.4 1016.3 0.0
15/06:00am 18.7 17.4 15.9 84 1.7 SSE 17 20 9 11 1016.4 1016.3 0.0
15/05:30am 18.4 17.0 15.6 84 1.7 SSE 17 20 9 11 1016.0 1015.9 0.0
15/05:00am 18.3 16.2 15.2 82 1.8 SSE 20 24 11 13 1015.4 1015.3 0.0
15/04:30am 18.0 15.7 15.8 87 1.3 S 22 24 12 13 1014.9 1014.8 0.0
15/04:00am 17.9 16.3 16.1 89 1.1 SSE 19 22 10 12 1014.7 1014.6 0.0
15/03:30am 18.1 16.4 16.3 89 1.1 S 20 24 11 13 1014.7 1014.6 0.0
15/03:00am 18.0 16.6 16.5 91 0.9 S 19 20 10 11 1014.6 1014.5 0.0
15/02:30am 17.9 16.5 16.6 92 0.8 S 19 22 10 12 1014.6 1014.5 0.0
15/02:00am 18.0 16.6 16.5 91 0.9 S 19 20 10 11 1014.8 1014.7 0.0
15/01:30am 18.0 16.0 16.5 91 0.9 S 22 26 12 14 1014.8 1014.7 0.0
15/01:00am 18.1 16.1 16.4 90 1.0 S 22 26 12 14 1014.9 1014.8 0.0
15/12:30am 18.0 16.3 16.3 90 1.0 S 20 24 11 13 1015.0 1014.9 0.0
15/12:00am 18.1 16.5 16.4 90 1.0 S 20 24 11 13 1015.1 1015.0 0.0
 
Date/Time
WST
Temp
°C
App
Temp
°C
Dew
Point
°C
Rel
Hum
%
Delta-T
°C
Wind Press
QNH
hPa
Press
MSL
hPa
Rain since
9am
mm
Dir  Spd
km/h
Gust
km/h
Spd
kts
Gust
kts
14/11:30pm 18.3 16.3 16.5 89 1.1 S 22 26 12 14 1015.3 1015.2 0.0
14/11:00pm 18.2 15.8 16.4 89 1.1 S 24 28 13 15 1015.5 1015.4 0.0
14/10:30pm 18.3 16.3 16.5 89 1.1 S 22 26 12 14 1015.8 1015.7 0.0
14/10:00pm 18.2 16.1 16.2 88 1.2 S 22 26 12 14 1016.1 1016.0 0.0
14/09:30pm 18.3 15.8 16.1 87 1.3 S 24 28 13 15 1016.2 1016.1 0.0
14/09:00pm 18.4 16.1 15.8 85 1.5 S 22 26 12 14 1016.3 1016.2 0.0
14/08:30pm 18.3 15.9 15.4 83 1.7 S 22 28 12 15 1016.1 1016.0 0.0
14/08:00pm 18.3 15.4 15.0 81 1.9 S 24 28 13 15 1015.8 1015.7 0.0
14/07:30pm 18.2 15.2 14.9 81 1.9 S 24 32 13 17 1015.8 1015.7 0.0
14/07:00pm 18.3 15.1 15.2 82 1.8 SSW 26 33 14 18 1015.8 1015.7 0.0
14/06:30pm 18.6 15.0 15.3 81 1.9 SSW 28 37 15 20 1015.9 1015.8 0.0
14/06:00pm 19.2 16.3 15.1 77 2.4 SSW 24 32 13 17 1015.8 1015.7 0.0
14/05:30pm 19.6 15.9 15.0 75 2.7 SSW 28 33 15 18 1015.7 1015.6 0.0
14/05:00pm 19.9 16.2 15.1 74 2.8 SSW 28 35 15 19 1015.9 1015.8 0.0
14/04:30pm 19.9 15.4 14.9 73 2.9 SSW 32 39 17 21 1015.9 1015.8 0.0
14/04:00pm 20.1 15.7 15.1 73 2.9 SSW 32 39 17 21 1016.0 1015.9 0.0
14/03:30pm 20.5 16.1 15.1 71 3.2 SSW 32 37 17 20 1016.0 1015.9 0.0
14/03:00pm 20.3 15.9 15.1 72 3.1 SSW 32 41 17 22 1016.2 1016.1 0.0
14/02:30pm 20.6 17.0 15.2 71 3.2 SSW 28 32 15 17 1016.8 1016.7 0.0
14/02:00pm 21.1 17.6 15.4 70 3.4 SSW 28 32 15 17 1017.0 1016.9 0.0
14/01:30pm 21.2 17.7 15.5 70 3.4 SSW 28 33 15 18 1017.2 1017.1 0.0
14/01:00pm 20.4 16.8 14.1 67 3.6 SSW 26 32 14 17 1017.5 1017.4 0.0
14/12:30pm 21.0 17.6 13.7 63 4.2 SSW 24 30 13 16 1017.6 1017.5 0.0
14/12:00pm 21.5 18.4 14.4 64 4.2 SSW 24 30 13 16 1018.0 1017.9 0.0
14/11:30am 20.4 16.4 13.1 63 4.2 S 26 32 14 17 1018.3 1018.2 0.0
14/11:00am 20.7 16.7 12.9 61 4.4 S 26 32 14 17 1018.7 1018.6 0.0
14/10:30am 20.0 16.2 12.3 61 4.3 S 24 28 13 15 1018.8 1018.7 0.0
14/10:00am 19.3 15.8 12.1 63 4.0 S 22 26 12 14 1018.9 1018.8 0.0
14/09:30am 20.1 17.7 12.6 62 4.2 SSE 17 20 9 11 1019.0 1018.9 0.0
14/09:00am 19.7 17.0 11.7 60 4.4 SE 17 24 9 13 1018.9 1018.8 0.0
14/08:30am 18.3 15.0 11.6 65 3.7 SE 20 28 11 15 1019.0 1018.9 0.0
14/08:00am 17.8 14.4 11.1 65 3.6 SE 20 28 11 15 1019.1 1019.0 0.0
14/07:30am 17.1 13.3 11.2 68 3.2 SE 22 30 12 16 1018.8 1018.7 0.0
14/07:00am 16.8 13.4 11.3 70 3.0 SE 20 28 11 15 1018.5 1018.4 0.0
14/06:30am 16.5 12.7 11.2 71 2.9 ESE 22 32 12 17 1018.4 1018.3 0.0
14/06:00am 16.5 13.2 11.6 73 2.7 SE 20 32 11 17 1018.3 1018.2 0.0
14/05:30am 16.2 12.3 12.2 77 2.2 SE 24 32 13 17 1017.9 1017.8 0.0
14/05:00am 16.5 12.8 12.7 78 2.1 SE 24 32 13 17 1017.5 1017.4 0.0
14/04:30am 16.6 12.2 12.9 79 2.1 SE 28 32 15 17 1017.1 1017.0 0.0
14/04:00am 16.8 13.2 12.9 78 2.2 SSE 24 32 13 17 1017.1 1017.0 0.0
14/03:30am 17.0 13.5 13.5 80 2.0 SSE 24 33 13 18 1017.2 1017.1 0.0
14/03:00am 17.0 12.4 13.5 80 2.0 SSE 30 35 16 19 1017.1 1017.0 0.0
14/02:30am 17.1 12.1 13.4 79 2.1 SSE 32 39 17 21 1016.9 1016.8 0.0
14/02:00am 16.8 11.3 13.7 82 1.8 SSE 35 41 19 22 1016.8 1016.7 0.0
14/01:30am 16.9 11.1 14.0 83 1.7 S 37 46 20 25 1016.7 1016.6 0.0
14/01:00am 16.7 10.2 14.0 84 1.5 S 41 48 22 26 1016.7 1016.6 0.0
14/12:30am 16.7 9.7 13.6 82 1.8 S 43 54 23 29 1016.8 1016.7 0.0
14/12:00am 16.6 9.4 13.7 83 1.6 S 44 52 24 28 1016.9 1016.8 0.0
 
Date/Time
WST
Temp
°C
App
Temp
°C
Dew
Point
°C
Rel
Hum
%
Delta-T
°C
Wind Press
QNH
hPa
Press
MSL
hPa
Rain since
9am
mm
Dir  Spd
km/h
Gust
km/h
Spd
kts
Gust
kts
13/11:30pm 16.9 9.8 13.4 80 2.0 S 43 54 23 29 1017.1 1017.0 0.0
13/11:00pm 17.3 10.8 14.0 81 1.9 S 41 50 22 27 1017.5 1017.4 0.0
13/10:30pm 17.4 11.3 14.1 81 1.9 S 39 48 21 26 1017.5 1017.4 0.0
13/10:00pm 17.3 12.1 14.4 83 1.7 S 35 43 19 23 1017.9 1017.8 0.0
13/09:30pm 17.2 11.9 14.3 83 1.7 S 35 43 19 23 1018.1 1018.0 0.0
13/09:00pm 17.3 12.8 14.9 86 1.4 S 32 41 17 22 1018.4 1018.3 0.0
13/08:30pm 17.2 12.7 14.8 86 1.4 SSW 32 41 17 22 1018.2 1018.1 0.0
13/08:00pm 17.3 12.2 14.8 85 1.4 SSW 35 43 19 23 1017.9 1017.8 0.0
13/07:30pm 17.2 12.4 14.7 85 1.4 SSW 33 43 18 23 1017.6 1017.5 0.0
13/07:00pm 17.5 12.4 14.8 84 1.6 SSW 35 43 19 23 1017.3 1017.2 0.0
13/06:30pm 17.7 12.5 14.4 81 1.9 SSW 35 43 19 23 1017.1 1017.0 0.0
13/06:00pm 18.3 13.1 14.6 79 2.1 SSW 35 43 19 23 1016.9 1016.8 0.0
13/05:30pm 18.6 13.6 15.1 80 2.0 SSW 35 43 19 23 1016.6 1016.5 0.0
13/05:00pm 18.8 14.3 15.5 81 1.9 SSW 33 41 18 22 1016.5 1016.4 0.0
13/04:30pm 19.5 14.9 15.0 75 2.6 SSW 33 41 18 22 1016.5 1016.4 0.0
13/04:00pm 19.5 14.8 14.3 72 3.0 SSW 32 41 17 22 1016.4 1016.3 0.0
13/03:30pm 19.4 14.5 14.2 72 3.0 SSW 33 41 18 22 1016.5 1016.4 0.0
13/03:00pm 19.5 14.6 14.3 72 3.0 SSW 33 41 18 22 1016.9 1016.8 0.0
13/02:30pm 19.4 14.3 13.8 70 3.2 SSW 33 39 18 21 1017.1 1017.0 0.0
13/02:00pm 19.6 14.7 14.2 71 3.1 SSW 33 39 18 21 1017.2 1017.1 0.0

Other Formats:

Comma delimited format used in spreadsheet applications
http://www.bom.gov.au/fwo/IDW60801/IDW60801.94602.axf

JavaScript Object Notation format (JSON) in row-major order
http://www.bom.gov.au/fwo/IDW60801/IDW60801.94602.json